Time;durP1;ratioP1;P1;durP2;ratioP2;P2;SDS_P1;SDS_P2;PMS_P1;PMS_P2;Temp;Humidity;BMP_temperature;BMP_pressure;BME280_temperature;BME280_humidity;BME280_pressure;Samples;Min_cycle;Max_cycle;Signal;HPM_P1;HPM_P2
2022/07/18 00:00:44;;;;;;;1.63;0.80;;;14.50;99.90;;;;;;5056993;28;20895;-83
2022/07/18 00:03:13;;;;;;;0.80;0.70;;;14.50;99.90;;;;;;5063550;28;21210;-85
2022/07/18 00:05:40;;;;;;;0.70;0.70;;;14.30;99.90;;;;;;5064786;28;20450;-83
2022/07/18 00:08:07;;;;;;;3.90;0.90;;;14.20;99.90;;;;;;5060474;28;20461;-86
2022/07/18 00:10:34;;;;;;;0.80;0.80;;;14.20;99.90;;;;;;5056546;28;20476;-82
2022/07/18 00:13:01;;;;;;;3.23;0.70;;;14.00;99.90;;;;;;5056122;28;20506;-82
2022/07/18 00:15:28;;;;;;;1.73;0.93;;;14.00;99.90;;;;;;5062529;28;20487;-86
2022/07/18 00:17:55;;;;;;;1.27;0.80;;;14.10;99.90;;;;;;5059609;28;20499;-84
2022/07/18 00:20:23;;;;;;;1.73;0.73;;;14.20;99.90;;;;;;5063603;28;21073;-83
2022/07/18 00:22:50;;;;;;;0.90;0.80;;;14.30;99.90;;;;;;5060492;28;20462;-82
2022/07/18 00:25:17;;;;;;;1.17;0.90;;;14.20;99.90;;;;;;5063695;28;20440;-83
2022/07/18 00:27:44;;;;;;;1.33;0.90;;;14.30;99.90;;;;;;5063727;28;20560;-84
2022/07/18 00:30:12;;;;;;;1.27;0.83;;;14.00;99.90;;;;;;5062997;28;20465;-83
2022/07/18 00:32:39;;;;;;;0.80;0.70;;;13.90;99.90;;;;;;5059591;28;20954;-84
2022/07/18 00:35:07;;;;;;;1.20;1.00;;;13.70;99.90;;;;;;5063688;28;20468;-86
2022/07/18 00:37:36;;;;;;;0.93;0.83;;;13.60;99.90;;;;;;5059730;28;20462;-83
2022/07/18 00:40:03;;;;;;;1.10;1.00;;;13.70;99.90;;;;;;5061945;28;20461;-86
2022/07/18 00:42:30;;;;;;;1.23;0.77;;;13.80;99.90;;;;;;5061544;28;20538;-82
2022/07/18 00:44:58;;;;;;;1.00;0.70;;;13.80;99.90;;;;;;5062797;28;20501;-82
2022/07/18 00:47:25;;;;;;;1.40;1.00;;;14.00;99.90;;;;;;5049838;28;20497;-83
2022/07/18 00:49:52;;;;;;;1.50;1.03;;;13.90;99.90;;;;;;5063215;28;20460;-82
2022/07/18 00:52:19;;;;;;;1.87;0.90;;;13.90;99.90;;;;;;5057010;28;20476;-81
2022/07/18 00:54:47;;;;;;;2.10;0.80;;;13.90;99.90;;;;;;5060698;28;20472;-82
2022/07/18 00:57:14;;;;;;;0.70;0.70;;;13.90;99.90;;;;;;5055021;28;20495;-82
2022/07/18 01:02:27;;;;;;;1.63;0.70;;;13.50;99.90;;;;;;5062088;28;20498;-82
2022/07/18 01:04:54;;;;;;;1.77;0.90;;;13.50;99.90;;;;;;5057642;28;20540;-82
2022/07/18 01:07:21;;;;;;;1.23;0.80;;;13.40;99.90;;;;;;5054469;28;20478;-83
2022/07/18 01:09:50;;;;;;;0.83;0.83;;;13.50;99.90;;;;;;5058579;28;20470;-83
2022/07/18 01:12:17;;;;;;;0.80;0.77;;;13.40;99.90;;;;;;5059776;28;20466;-82
2022/07/18 01:14:44;;;;;;;1.10;0.70;;;13.30;99.90;;;;;;5055366;28;20460;-84
2022/07/18 01:17:16;;;;;;;2.00;0.67;;;13.40;99.90;;;;;;5059493;28;21040;-87
2022/07/18 01:19:43;;;;;;;0.70;0.70;;;13.50;99.90;;;;;;5059256;28;20563;-83
2022/07/18 01:22:11;;;;;;;1.00;0.53;;;13.40;99.90;;;;;;5059073;28;20542;-83
2022/07/18 01:24:39;;;;;;;1.10;0.80;;;13.40;99.90;;;;;;5058540;28;20507;-83
2022/07/18 01:27:06;;;;;;;1.57;1.07;;;13.50;99.90;;;;;;5061699;28;20465;-82
2022/07/18 01:29:34;;;;;;;1.07;0.67;;;13.50;99.90;;;;;;5058484;28;20509;-82
2022/07/18 01:32:05;;;;;;;1.17;0.93;;;13.50;99.90;;;;;;5061419;28;20456;-83
2022/07/18 01:34:32;;;;;;;1.03;0.80;;;13.40;99.90;;;;;;5060275;28;20466;-83
2022/07/18 01:37:00;;;;;;;2.03;0.90;;;13.40;99.90;;;;;;5058927;28;20495;-83
2022/07/18 01:39:28;;;;;;;0.90;0.90;;;13.40;99.90;;;;;;5060182;28;20469;-84
2022/07/18 01:41:59;;;;;;;1.90;1.43;;;13.40;99.90;;;;;;5060508;28;20477;-82
2022/07/18 01:44:27;;;;;;;0.83;0.83;;;13.30;99.90;;;;;;5057393;28;20544;-83
2022/07/18 01:46:55;;;;;;;2.67;0.87;;;13.30;99.90;;;;;;5054647;28;20457;-83
2022/07/18 01:49:24;;;;;;;0.70;0.70;;;13.20;99.90;;;;;;5056586;28;21815;-83
2022/07/18 01:51:53;;;;;;;1.80;0.70;;;13.10;99.90;;;;;;5056016;28;21006;-85
2022/07/18 01:54:21;;;;;;;1.23;1.10;;;13.20;99.90;;;;;;5058933;28;20460;-82
2022/07/18 01:56:50;;;;;;;0.60;0.60;;;13.20;99.90;;;;;;5059100;28;20469;-82
2022/07/18 01:59:17;;;;;;;0.80;0.60;;;13.20;99.90;;;;;;5063795;28;20519;-83
2022/07/18 02:01:44;;;;;;;0.90;0.80;;;13.20;99.90;;;;;;5066298;28;20482;-82
2022/07/18 02:04:11;;;;;;;3.20;1.27;;;13.20;99.90;;;;;;5059095;28;20516;-83
2022/07/18 02:06:39;;;;;;;0.80;0.70;;;13.20;99.90;;;;;;5066580;28;20464;-84
2022/07/18 02:09:07;;;;;;;1.23;1.13;;;13.30;99.90;;;;;;5065893;28;21114;-85
2022/07/18 02:11:34;;;;;;;0.70;0.60;;;13.20;99.90;;;;;;5058110;28;20495;-83
2022/07/18 02:14:04;;;;;;;0.70;0.67;;;13.00;99.90;;;;;;5061403;28;20530;-83
2022/07/18 02:16:31;;;;;;;1.33;1.00;;;12.90;99.90;;;;;;5057846;28;20545;-84
2022/07/18 02:18:58;;;;;;;1.30;1.10;;;13.00;99.90;;;;;;5059313;28;20462;-85
2022/07/18 02:21:25;;;;;;;0.90;0.80;;;13.00;99.90;;;;;;5065341;28;20492;-82
2022/07/18 02:23:54;;;;;;;1.07;0.80;;;12.90;99.90;;;;;;5066047;28;20509;-85
2022/07/18 02:26:21;;;;;;;1.67;1.00;;;12.90;99.90;;;;;;5064843;28;20456;-86
2022/07/18 02:28:48;;;;;;;1.17;0.70;;;12.90;99.90;;;;;;5073850;28;20464;-80
2022/07/18 02:31:16;;;;;;;2.00;1.43;;;12.80;99.90;;;;;;5071396;28;20483;-81
2022/07/18 02:33:43;;;;;;;1.40;1.10;;;12.80;99.90;;;;;;5070223;28;20464;-85
2022/07/18 02:36:10;;;;;;;1.63;0.70;;;12.80;99.90;;;;;;5061567;28;20913;-82
2022/07/18 02:38:37;;;;;;;0.93;0.67;;;12.80;99.90;;;;;;5064459;28;20854;-81
2022/07/18 02:41:04;;;;;;;0.80;0.80;;;12.80;99.90;;;;;;5063889;28;20472;-82
2022/07/18 02:43:31;;;;;;;1.17;0.80;;;12.70;99.90;;;;;;5067320;28;20445;-82
2022/07/18 02:45:58;;;;;;;1.00;0.90;;;12.80;99.90;;;;;;5065325;28;20456;-82
2022/07/18 02:48:27;;;;;;;1.10;0.80;;;12.70;99.90;;;;;;5061406;28;20452;-82
2022/07/18 02:50:54;;;;;;;0.93;0.80;;;12.90;99.90;;;;;;5063816;28;20524;-81
2022/07/18 02:53:23;;;;;;;1.27;0.70;;;12.80;99.90;;;;;;5062339;28;20469;-81
2022/07/18 02:55:50;;;;;;;0.60;0.60;;;12.70;99.90;;;;;;5064169;28;20817;-82
2022/07/18 02:58:17;;;;;;;3.73;1.10;;;12.80;99.90;;;;;;5060363;28;20528;-81
2022/07/18 03:00:44;;;;;;;0.93;0.67;;;12.80;99.90;;;;;;5058451;28;20463;-84
2022/07/18 03:03:11;;;;;;;5.43;2.60;;;12.70;99.90;;;;;;5064271;28;20476;-82
2022/07/18 03:05:40;;;;;;;0.80;0.80;;;12.70;99.90;;;;;;5055416;28;20931;-83
2022/07/18 03:08:07;;;;;;;2.83;0.90;;;12.70;99.90;;;;;;5067733;28;20999;-82
2022/07/18 03:10:34;;;;;;;0.60;0.60;;;12.80;99.90;;;;;;5061785;28;20512;-83
2022/07/18 03:13:01;;;;;;;1.83;1.40;;;12.70;99.90;;;;;;5059586;28;20524;-81
2022/07/18 03:15:28;;;;;;;1.00;0.90;;;12.60;99.90;;;;;;5059001;28;20545;-82
2022/07/18 03:17:54;;;;;;;2.93;0.97;;;12.50;99.90;;;;;;5055901;28;20474;-81
2022/07/18 03:20:22;;;;;;;1.17;1.00;;;12.50;99.90;;;;;;5061857;28;20520;-81
2022/07/18 03:22:50;;;;;;;1.20;1.00;;;12.50;99.90;;;;;;5060393;28;20986;-82
2022/07/18 03:25:17;;;;;;;2.20;1.00;;;12.50;99.90;;;;;;5062517;28;20451;-81
2022/07/18 03:27:44;;;;;;;0.80;0.80;;;12.50;99.90;;;;;;5070635;28;20459;-81
2022/07/18 03:30:12;;;;;;;1.10;0.73;;;12.40;99.90;;;;;;5073126;28;20467;-81
2022/07/18 03:32:39;;;;;;;3.43;0.87;;;12.30;99.90;;;;;;5075525;28;20499;-81
2022/07/18 03:35:07;;;;;;;1.50;1.00;;;12.30;99.90;;;;;;5065212;28;20481;-83
2022/07/18 03:37:34;;;;;;;1.33;1.00;;;12.30;99.90;;;;;;5063494;28;20495;-86
2022/07/18 03:40:03;;;;;;;0.73;0.70;;;12.30;99.90;;;;;;5062786;28;20872;-82
2022/07/18 03:42:30;;;;;;;1.17;0.80;;;12.30;99.90;;;;;;5056925;28;20605;-82
2022/07/18 03:44:57;;;;;;;0.93;0.70;;;12.30;99.90;;;;;;5053283;28;20906;-82
2022/07/18 03:47:24;;;;;;;0.97;0.97;;;12.40;99.90;;;;;;5056064;28;20528;-81
2022/07/18 03:49:51;;;;;;;0.90;0.70;;;12.50;99.90;;;;;;5065113;28;20455;-83
2022/07/18 03:52:18;;;;;;;0.90;0.90;;;12.60;99.90;;;;;;5060228;28;20450;-85
2022/07/18 03:54:45;;;;;;;1.73;1.37;;;12.50;99.90;;;;;;5065238;28;20486;-83
2022/07/18 03:57:13;;;;;;;1.10;0.70;;;12.50;99.90;;;;;;5057654;28;20455;-83
2022/07/18 03:59:40;;;;;;;2.20;1.00;;;12.50;99.90;;;;;;5064785;28;20524;-81
2022/07/18 04:02:07;;;;;;;0.90;0.90;;;12.60;99.90;;;;;;5058283;28;20499;-82
2022/07/18 04:04:34;;;;;;;1.00;0.87;;;12.60;99.90;;;;;;5059748;28;21053;-82
2022/07/18 04:07:03;;;;;;;4.33;1.00;;;12.70;99.90;;;;;;5060459;28;20508;-83
2022/07/18 04:09:30;;;;;;;0.80;0.80;;;12.80;99.90;;;;;;5055788;28;20460;-82
2022/07/18 04:11:57;;;;;;;0.90;0.90;;;13.00;99.90;;;;;;5059048;28;20475;-82
2022/07/18 04:14:25;;;;;;;1.10;0.90;;;13.30;99.90;;;;;;5059689;28;20513;-82
2022/07/18 04:16:52;;;;;;;2.93;1.30;;;13.20;99.90;;;;;;5056608;28;20922;-81
2022/07/18 04:19:19;;;;;;;1.33;1.10;;;13.30;99.90;;;;;;5061034;28;20471;-82
2022/07/18 04:21:46;;;;;;;0.80;0.80;;;13.20;99.90;;;;;;5056175;28;20986;-81
2022/07/18 04:24:13;;;;;;;0.87;0.87;;;13.30;99.90;;;;;;5060722;28;20457;-84
2022/07/18 04:26:40;;;;;;;0.80;0.70;;;13.30;99.90;;;;;;5059725;28;20564;-83
2022/07/18 04:29:07;;;;;;;1.20;1.10;;;13.30;99.90;;;;;;5058659;28;20452;-83
2022/07/18 04:31:36;;;;;;;1.27;1.17;;;13.50;99.90;;;;;;5061029;28;20543;-82
2022/07/18 04:34:03;;;;;;;1.70;1.10;;;13.60;99.90;;;;;;5057124;28;20538;-82
2022/07/18 04:36:30;;;;;;;1.10;0.80;;;13.60;99.90;;;;;;5051806;28;20534;-82
2022/07/18 04:38:57;;;;;;;1.07;1.00;;;13.50;99.90;;;;;;5060931;28;20455;-82
2022/07/18 04:41:24;;;;;;;1.27;1.17;;;13.50;99.90;;;;;;5057828;28;20553;-81
2022/07/18 04:43:52;;;;;;;1.40;1.10;;;13.70;99.90;;;;;;5059533;28;20493;-82
2022/07/18 04:46:19;;;;;;;1.40;1.30;;;13.70;99.90;;;;;;5059687;28;20945;-81
2022/07/18 04:48:47;;;;;;;1.47;1.17;;;13.80;99.90;;;;;;5061636;28;20465;-82
2022/07/18 04:51:14;;;;;;;3.70;1.00;;;13.70;99.90;;;;;;5061084;28;20525;-82
2022/07/18 04:53:42;;;;;;;2.00;0.80;;;13.70;99.90;;;;;;5061969;28;20470;-81
2022/07/18 04:56:09;;;;;;;1.60;0.87;;;13.90;99.90;;;;;;5053664;28;20516;-82
2022/07/18 04:58:36;;;;;;;3.40;0.90;;;14.00;99.90;;;;;;5056399;28;20470;-86
2022/07/18 05:01:03;;;;;;;1.27;0.97;;;13.90;99.90;;;;;;5060988;28;20552;-83
2022/07/18 05:03:30;;;;;;;0.73;0.70;;;13.90;99.90;;;;;;5062190;28;21285;-83
2022/07/18 05:05:58;;;;;;;1.57;1.10;;;14.00;99.90;;;;;;5061453;28;20455;-83
2022/07/18 05:08:25;;;;;;;3.43;0.90;;;14.00;99.90;;;;;;5065340;28;20458;-86
2022/07/18 05:10:52;;;;;;;0.63;0.60;;;14.20;99.90;;;;;;5062910;28;20459;-84
2022/07/18 05:13:19;;;;;;;0.90;0.80;;;14.50;99.90;;;;;;5065777;28;21031;-83
2022/07/18 05:15:46;;;;;;;0.60;0.60;;;14.70;99.90;;;;;;5056235;28;20659;-83
2022/07/18 05:18:13;;;;;;;1.43;0.90;;;14.80;99.90;;;;;;5056604;28;20938;-82
2022/07/18 05:20:40;;;;;;;1.37;0.80;;;15.00;99.90;;;;;;5058374;28;20455;-83
2022/07/18 05:23:09;;;;;;;1.47;1.00;;;15.10;99.90;;;;;;5060152;28;20554;-85
2022/07/18 05:25:37;;;;;;;4.63;1.03;;;15.30;99.90;;;;;;5063807;28;20649;-82
2022/07/18 05:28:04;;;;;;;2.73;1.07;;;15.40;99.90;;;;;;5054494;28;20483;-85
2022/07/18 05:30:31;;;;;;;4.10;1.57;;;15.40;99.90;;;;;;5060799;28;21045;-85
2022/07/18 05:32:58;;;;;;;2.33;1.10;;;15.50;99.90;;;;;;5062025;28;20852;-85
2022/07/18 05:35:25;;;;;;;1.00;0.90;;;15.70;99.90;;;;;;5060275;28;20522;-83
2022/07/18 05:37:52;;;;;;;1.10;0.80;;;15.80;99.90;;;;;;5062820;28;20500;-86
2022/07/18 05:40:21;;;;;;;1.37;1.27;;;15.90;99.90;;;;;;5060987;28;20535;-85
2022/07/18 05:42:49;;;;;;;1.00;0.90;;;16.10;99.90;;;;;;5063577;28;20531;-83
2022/07/18 05:45:16;;;;;;;1.13;1.13;;;16.20;99.90;;;;;;5061809;28;23864;-83
2022/07/18 05:47:43;;;;;;;2.10;0.90;;;16.30;99.90;;;;;;5059869;28;20475;-85
2022/07/18 05:50:11;;;;;;;1.60;0.87;;;16.60;99.90;;;;;;5063753;28;20469;-83
2022/07/18 05:52:38;;;;;;;0.80;0.70;;;16.90;99.90;;;;;;5065488;28;20524;-83
2022/07/18 05:55:06;;;;;;;1.00;1.00;;;16.90;99.90;;;;;;5062990;28;20466;-84
2022/07/18 05:57:35;;;;;;;1.33;0.83;;;16.90;99.90;;;;;;5063603;28;20506;-84
2022/07/18 06:00:03;;;;;;;1.13;0.97;;;16.90;99.90;;;;;;5060815;28;20570;-83
2022/07/18 06:02:30;;;;;;;0.80;0.80;;;16.90;99.90;;;;;;5058902;28;20475;-84
2022/07/18 06:04:59;;;;;;;2.60;1.10;;;17.00;99.90;;;;;;5055954;28;20930;-84
2022/07/18 06:07:26;;;;;;;1.17;1.00;;;17.30;99.90;;;;;;5051450;28;20466;-83
2022/07/18 06:09:53;;;;;;;1.37;1.00;;;17.30;99.90;;;;;;5055408;28;20562;-83
2022/07/18 06:12:20;;;;;;;4.80;1.13;;;17.10;99.90;;;;;;5058306;28;20521;-82
2022/07/18 06:14:49;;;;;;;1.20;1.10;;;16.90;99.90;;;;;;5053669;28;20467;-84
2022/07/18 06:17:16;;;;;;;1.33;1.00;;;17.20;99.90;;;;;;5057525;28;21190;-83
2022/07/18 06:19:43;;;;;;;2.37;1.10;;;17.50;99.90;;;;;;5055329;28;20464;-84
2022/07/18 06:22:10;;;;;;;2.27;0.90;;;17.80;99.90;;;;;;5056341;28;21001;-82
2022/07/18 06:24:37;;;;;;;1.50;1.40;;;17.90;99.90;;;;;;5053516;28;21008;-84
2022/07/18 06:27:04;;;;;;;2.80;1.50;;;18.00;99.90;;;;;;5062380;28;20456;-83
2022/07/18 06:29:31;;;;;;;2.03;1.20;;;18.00;99.90;;;;;;5071130;28;20490;-83
2022/07/18 06:31:59;;;;;;;1.20;1.10;;;18.20;99.90;;;;;;5065007;28;20843;-84
2022/07/18 06:34:26;;;;;;;2.13;1.30;;;18.30;99.90;;;;;;5061558;28;20810;-82
2022/07/18 06:36:53;;;;;;;2.40;1.27;;;18.50;99.90;;;;;;5062030;28;20466;-83
2022/07/18 06:39:20;;;;;;;1.20;1.00;;;18.60;99.90;;;;;;5064683;28;20527;-84
2022/07/18 06:41:47;;;;;;;1.90;0.90;;;18.80;98.90;;;;;;5060990;28;20486;-83
2022/07/18 06:44:14;;;;;;;15.53;3.13;;;19.10;98.90;;;;;;5061216;28;20535;-84
2022/07/18 06:46:42;;;;;;;1.87;1.20;;;18.80;97.20;;;;;;5056683;28;20461;-85
2022/07/18 06:49:10;;;;;;;4.87;1.80;;;19.00;99.90;;;;;;5054513;28;20440;-82
2022/07/18 06:51:37;;;;;;;0.97;0.70;;;19.10;98.40;;;;;;5055475;28;20805;-85
2022/07/18 06:54:04;;;;;;;1.17;1.07;;;19.10;95.90;;;;;;5058788;28;20460;-84
2022/07/18 06:56:31;;;;;;;1.40;0.70;;;19.20;94.80;;;;;;5053543;28;20507;-84
2022/07/18 06:58:58;;;;;;;1.80;1.43;;;19.40;93.90;;;;;;5054725;28;20544;-84
2022/07/18 07:01:25;;;;;;;2.80;1.40;;;19.50;94.30;;;;;;5053747;28;20495;-84
2022/07/18 07:03:52;;;;;;;1.57;1.10;;;19.70;94.50;;;;;;5056953;28;21057;-85
2022/07/18 07:06:21;;;;;;;1.00;0.70;;;19.80;93.40;;;;;;5055469;28;20461;-84
2022/07/18 07:08:48;;;;;;;1.43;1.10;;;19.70;93.80;;;;;;5058736;28;20482;-83
2022/07/18 07:11:15;;;;;;;3.77;0.97;;;20.10;93.40;;;;;;5057744;28;20457;-83
2022/07/18 07:13:42;;;;;;;0.80;0.67;;;20.70;93.00;;;;;;5054634;28;20936;-83
2022/07/18 07:16:09;;;;;;;4.63;0.70;;;20.90;92.90;;;;;;5055760;28;20493;-83
2022/07/18 07:18:36;;;;;;;0.83;0.77;;;20.80;92.70;;;;;;5057261;28;20453;-85
2022/07/18 07:21:03;;;;;;;1.63;0.70;;;21.00;91.70;;;;;;5061890;28;21260;-85
2022/07/18 07:23:32;;;;;;;1.00;0.90;;;21.20;90.80;;;;;;5059588;28;20505;-83
2022/07/18 07:25:58;;;;;;;0.80;0.70;;;21.10;91.30;;;;;;5060069;28;20512;-83
2022/07/18 07:28:25;;;;;;;0.70;0.70;;;21.00;91.00;;;;;;5058251;28;20473;-84
2022/07/18 07:30:53;;;;;;;0.97;0.87;;;21.30;91.70;;;;;;5051304;28;20475;-83
2022/07/18 07:33:20;;;;;;;1.37;1.00;;;21.50;90.30;;;;;;5053739;28;20549;-84
2022/07/18 07:35:47;;;;;;;3.90;1.43;;;21.40;89.00;;;;;;5057566;28;20472;-83
2022/07/18 07:38:18;;;;;;;0.80;0.80;;;21.50;89.70;;;;;;5057222;28;20475;-84
2022/07/18 07:40:47;;;;;;;3.13;1.13;;;21.60;89.80;;;;;;5055227;28;20474;-84
2022/07/18 07:43:16;;;;;;;0.80;0.80;;;21.70;90.30;;;;;;5055898;28;20488;-84
2022/07/18 07:45:49;;;;;;;1.43;1.13;;;21.90;88.90;;;;;;5056606;28;20954;-84
2022/07/18 07:48:16;;;;;;;3.57;1.10;;;21.80;90.90;;;;;;5061443;28;20483;-85
2022/07/18 07:50:43;;;;;;;1.20;0.80;;;21.80;91.40;;;;;;5054395;28;20593;-84
2022/07/18 07:53:10;;;;;;;1.43;1.10;;;21.60;89.10;;;;;;5054563;28;20517;-85
2022/07/18 07:55:37;;;;;;;1.00;0.90;;;21.80;89.20;;;;;;5053876;28;21186;-82
2022/07/18 07:58:06;;;;;;;0.67;0.67;;;21.80;90.00;;;;;;5052261;28;20469;-85
2022/07/18 08:00:33;;;;;;;0.90;0.80;;;22.10;88.50;;;;;;5053129;28;20529;-84
2022/07/18 08:03:02;;;;;;;1.77;0.80;;;21.80;84.90;;;;;;5052642;28;20507;-85
2022/07/18 08:05:30;;;;;;;1.03;0.90;;;21.80;89.20;;;;;;5053890;28;20452;-85
2022/07/18 08:07:58;;;;;;;1.37;0.70;;;22.10;84.10;;;;;;5055977;28;21205;-83
2022/07/18 08:10:25;;;;;;;0.77;0.77;;;22.20;86.50;;;;;;5050825;28;20464;-84
2022/07/18 08:12:52;;;;;;;3.73;0.80;;;22.20;86.00;;;;;;5052076;28;21171;-85
2022/07/18 08:15:21;;;;;;;1.43;0.90;;;22.10;88.60;;;;;;5059364;28;20691;-83
2022/07/18 08:17:48;;;;;;;0.93;0.93;;;22.60;90.60;;;;;;5050609;28;20984;-83
2022/07/18 08:20:16;;;;;;;1.07;0.90;;;22.80;79.80;;;;;;5053573;28;20526;-83
2022/07/18 08:22:53;;;;;;;0.83;0.80;;;22.80;78.30;;;;;;5056763;28;20484;-83
2022/07/18 08:25:21;;;;;;;1.37;0.60;;;23.20;78.80;;;;;;5059440;28;20804;-85
2022/07/18 08:27:48;;;;;;;1.03;0.70;;;23.30;76.00;;;;;;5060539;28;20508;-88
2022/07/18 08:30:15;;;;;;;0.80;0.80;;;23.30;74.20;;;;;;5058854;28;20460;-83
2022/07/18 08:32:43;;;;;;;0.97;0.90;;;23.30;75.50;;;;;;5056931;28;20540;-83
2022/07/18 08:35:11;;;;;;;3.03;0.77;;;23.50;77.80;;;;;;5048877;28;20504;-84
2022/07/18 08:37:38;;;;;;;0.87;0.70;;;23.30;75.40;;;;;;5048399;28;20464;-84
2022/07/18 08:40:06;;;;;;;2.60;0.80;;;23.70;74.80;;;;;;5054607;28;20456;-83
2022/07/18 08:42:35;;;;;;;2.47;0.60;;;23.50;75.40;;;;;;5050069;28;20943;-83
2022/07/18 08:45:02;;;;;;;0.60;0.60;;;23.40;73.70;;;;;;5049547;28;20487;-84
2022/07/18 08:47:30;;;;;;;0.60;0.60;;;23.60;74.60;;;;;;5056113;28;20452;-83
2022/07/18 08:49:59;;;;;;;0.93;0.80;;;23.70;79.00;;;;;;5050013;28;20708;-83
2022/07/18 08:52:27;;;;;;;0.63;0.60;;;23.60;73.20;;;;;;5056275;28;20998;-83
2022/07/18 08:54:54;;;;;;;1.77;0.90;;;23.90;75.60;;;;;;5049162;28;21042;-84
2022/07/18 08:57:21;;;;;;;8.63;0.70;;;24.00;76.30;;;;;;5050771;28;20468;-84
2022/07/18 08:59:57;;;;;;;1.00;0.90;;;24.20;76.00;;;;;;5049284;28;20533;-82
2022/07/18 09:02:26;;;;;;;0.83;0.83;;;24.30;74.10;;;;;;5053283;28;20467;-82
2022/07/18 09:04:54;;;;;;;1.43;0.60;;;24.40;71.90;;;;;;5048510;28;21297;-82
2022/07/18 09:07:29;;;;;;;0.80;0.60;;;24.60;69.00;;;;;;5049195;28;20441;-83
2022/07/18 09:09:57;;;;;;;0.70;0.70;;;24.90;70.30;;;;;;5048473;28;20440;-82
2022/07/18 09:12:25;;;;;;;1.27;0.80;;;24.90;68.10;;;;;;5055010;28;20459;-83
2022/07/18 09:14:52;;;;;;;0.90;0.90;;;24.60;66.80;;;;;;5058434;28;20549;-82
2022/07/18 09:17:21;;;;;;;1.70;0.73;;;25.00;71.20;;;;;;5060415;28;20943;-82
2022/07/18 09:19:59;;;;;;;0.80;0.80;;;25.00;65.30;;;;;;5063952;28;20464;-82
2022/07/18 09:22:30;;;;;;;4.10;0.70;;;25.00;65.60;;;;;;5062857;28;20459;-82
2022/07/18 09:25:03;;;;;;;0.80;0.73;;;25.20;68.80;;;;;;5063475;28;20483;-82
2022/07/18 09:27:34;;;;;;;1.33;0.80;;;25.50;66.90;;;;;;5063279;28;20550;-82
2022/07/18 09:30:21;;;;;;;0.50;0.40;;;25.40;65.50;;;;;;5054033;28;20469;-82
2022/07/18 09:32:51;;;;;;;0.93;0.60;;;25.30;67.90;;;;;;5054900;28;20548;-83
2022/07/18 09:35:20;;;;;;;0.80;0.80;;;25.80;68.10;;;;;;5061279;28;21134;-83
2022/07/18 09:38:03;;;;;;;0.60;0.50;;;25.60;62.20;;;;;;5065565;28;20450;-83
2022/07/18 09:40:32;;;;;;;0.90;0.53;;;25.90;65.00;;;;;;5059683;28;20444;-82
2022/07/18 09:43:01;;;;;;;0.70;0.70;;;25.70;63.50;;;;;;5060571;28;20549;-82
2022/07/18 09:45:31;;;;;;;0.70;0.70;;;25.80;68.60;;;;;;5059951;28;21029;-83
2022/07/18 09:48:00;;;;;;;0.60;0.60;;;25.90;61.70;;;;;;5058161;28;20460;-82
2022/07/18 09:50:29;;;;;;;0.70;0.70;;;25.80;63.10;;;;;;5064202;28;20460;-82
2022/07/18 09:53:07;;;;;;;0.80;0.60;;;25.90;63.10;;;;;;5063484;28;20451;-83
2022/07/18 09:55:34;;;;;;;0.90;0.70;;;26.00;60.90;;;;;;5057791;28;20491;-82
2022/07/18 09:58:04;;;;;;;0.60;0.60;;;26.40;60.00;;;;;;5056657;28;20463;-83
2022/07/18 10:00:33;;;;;;;0.60;0.60;;;26.00;59.70;;;;;;5049687;28;20518;-82
2022/07/18 10:03:01;;;;;;;0.60;0.60;;;25.60;60.40;;;;;;5060209;28;20464;-82
2022/07/18 10:05:30;;;;;;;0.50;0.50;;;25.90;62.60;;;;;;5061195;28;20479;-82
2022/07/18 10:07:58;;;;;;;0.60;0.60;;;26.20;60.60;;;;;;5048202;28;20519;-82
2022/07/18 10:10:28;;;;;;;1.27;0.53;;;26.20;60.60;;;;;;5050800;28;20568;-82
2022/07/18 10:12:57;;;;;;;0.70;0.50;;;26.60;59.90;;;;;;5045811;28;20468;-82
2022/07/18 10:15:25;;;;;;;1.70;1.37;;;26.90;57.10;;;;;;5047799;28;20484;-82
2022/07/18 10:17:53;;;;;;;1.33;0.70;;;27.00;54.30;;;;;;5050290;28;20545;-82
2022/07/18 10:20:26;;;;;;;0.97;0.70;;;26.90;56.20;;;;;;5054116;28;20460;-82
2022/07/18 10:22:56;;;;;;;0.70;0.60;;;27.20;57.30;;;;;;5057597;28;20922;-83
2022/07/18 10:25:24;;;;;;;0.70;0.60;;;27.50;57.50;;;;;;5053571;28;20531;-83
2022/07/18 10:27:55;;;;;;;0.60;0.60;;;27.50;55.00;;;;;;5052590;28;20466;-82
2022/07/18 10:30:34;;;;;;;2.30;0.60;;;27.30;53.40;;;;;;5056341;28;20474;-82
2022/07/18 10:33:01;;;;;;;0.70;0.70;;;27.10;51.90;;;;;;5059359;28;21140;-83
2022/07/18 10:36:00;;;;;;;0.60;0.50;;;26.90;54.10;;;;;;5053995;28;20461;-83
2022/07/18 10:38:27;;;;;;;0.60;0.50;;;27.40;54.40;;;;;;5053802;28;20459;-83
2022/07/18 10:41:08;;;;;;;0.60;0.47;;;27.60;52.40;;;;;;5054340;28;20459;-83
2022/07/18 10:43:43;;;;;;;0.60;0.47;;;27.60;48.90;;;;;;5056039;28;20853;-82
2022/07/18 10:46:48;;;;;;;0.70;0.60;;;27.90;53.20;;;;;;5062136;28;20460;-83
2022/07/18 10:49:15;;;;;;;0.57;0.50;;;27.60;47.50;;;;;;5050076;28;21154;-84
2022/07/18 10:51:42;;;;;;;0.70;0.70;;;27.80;51.90;;;;;;5049705;28;20465;-83
2022/07/18 10:54:11;;;;;;;3.10;0.60;;;27.80;47.30;;;;;;5050038;28;21017;-83
2022/07/18 10:57:10;;;;;;;0.80;0.60;;;27.70;47.50;;;;;;5047773;28;21207;-83
2022/07/18 11:00:02;;;;;;;0.70;0.57;;;27.60;48.60;;;;;;5051885;28;20577;-84
2022/07/18 11:02:37;;;;;;;0.70;0.50;;;27.40;50.20;;;;;;5051045;28;20472;-83
2022/07/18 11:05:35;;;;;;;0.63;0.63;;;27.20;51.10;;;;;;5053249;28;20683;-83
2022/07/18 11:08:19;;;;;;;0.57;0.50;;;27.30;49.00;;;;;;5049174;28;20461;-83
2022/07/18 11:11:09;;;;;;;0.60;0.47;;;27.30;48.50;;;;;;5056949;28;20884;-85
2022/07/18 11:13:37;;;;;;;0.50;0.50;;;27.50;48.50;;;;;;5055199;28;20542;-85
2022/07/18 11:16:10;;;;;;;1.13;0.83;;;27.50;45.60;;;;;;5050733;28;20491;-85
2022/07/18 11:19:10;;;;;;;0.70;0.60;;;27.50;44.40;;;;;;5050980;28;20505;-85
2022/07/18 11:21:37;;;;;;;1.30;1.30;;;27.40;47.00;;;;;;5053981;28;20566;-85
2022/07/18 11:24:07;;;;;;;1.13;0.50;;;27.20;48.40;;;;;;5056136;28;20512;-85
2022/07/18 11:26:35;;;;;;;1.00;0.50;;;27.30;46.00;;;;;;5049137;28;20463;-85
2022/07/18 11:29:04;;;;;;;0.50;0.40;;;27.50;47.30;;;;;;5053995;28;20618;-85
2022/07/18 11:31:43;;;;;;;0.70;0.57;;;27.40;44.30;;;;;;5048389;28;21114;-84
2022/07/18 11:34:10;;;;;;;1.03;0.47;;;27.60;44.90;;;;;;5049127;28;20456;-85
2022/07/18 11:36:41;;;;;;;1.30;0.50;;;27.30;44.70;;;;;;5048955;28;20469;-85
2022/07/18 11:39:10;;;;;;;0.70;0.60;;;27.60;44.80;;;;;;5048224;28;20535;-85
2022/07/18 11:41:40;;;;;;;0.60;0.50;;;28.00;47.30;;;;;;5052291;28;20551;-85
2022/07/18 11:44:16;;;;;;;1.63;0.50;;;27.90;41.80;;;;;;5049624;28;20475;-85
2022/07/18 11:46:45;;;;;;;2.13;0.83;;;28.00;41.00;;;;;;5053511;28;20478;-84
2022/07/18 11:49:13;;;;;;;0.60;0.50;;;28.10;42.60;;;;;;5052830;28;20978;-84
2022/07/18 11:51:41;;;;;;;0.50;0.40;;;28.30;41.80;;;;;;5050323;28;21769;-85
2022/07/18 11:54:09;;;;;;;0.60;0.50;;;27.90;45.30;;;;;;5050584;28;20498;-86
2022/07/18 11:56:48;;;;;;;0.63;0.60;;;28.10;40.30;;;;;;5049676;28;21351;-84
2022/07/18 11:59:15;;;;;;;1.03;0.60;;;28.10;41.60;;;;;;5059177;28;20463;-84
2022/07/18 12:01:44;;;;;;;0.63;0.40;;;28.40;45.70;;;;;;5053361;28;20514;-85
2022/07/18 12:04:19;;;;;;;0.90;0.60;;;28.40;41.20;;;;;;5053678;28;20456;-85
2022/07/18 12:06:47;;;;;;;0.50;0.50;;;28.50;42.00;;;;;;5051328;28;20803;-85
2022/07/18 12:09:26;;;;;;;0.70;0.40;;;28.60;38.60;;;;;;5052639;28;20465;-86
2022/07/18 12:11:53;;;;;;;0.60;0.40;;;28.30;39.80;;;;;;5052602;28;20953;-84
2022/07/18 12:14:20;;;;;;;0.60;0.50;;;28.40;39.70;;;;;;5054220;28;20453;-85
2022/07/18 12:16:49;;;;;;;1.00;0.47;;;28.60;43.30;;;;;;5052282;28;21107;-84
2022/07/18 12:19:23;;;;;;;0.50;0.50;;;28.60;41.70;;;;;;5055225;28;20522;-85
2022/07/18 12:21:52;;;;;;;0.67;0.50;;;28.80;41.60;;;;;;5058231;28;20455;-84
2022/07/18 12:24:29;;;;;;;0.87;0.77;;;29.40;44.60;;;;;;5065296;28;20460;-85
2022/07/18 12:27:09;;;;;;;0.50;0.50;;;28.90;41.70;;;;;;5063469;28;20453;-84
2022/07/18 12:30:12;;;;;;;0.73;0.50;;;29.00;41.70;;;;;;5050565;28;20452;-85
2022/07/18 12:32:42;;;;;;;0.73;0.57;;;28.70;40.30;;;;;;5058678;28;20447;-85
2022/07/18 12:35:12;;;;;;;0.80;0.60;;;28.90;40.70;;;;;;5058056;28;21231;-85
2022/07/18 12:37:40;;;;;;;0.80;0.60;;;28.80;46.50;;;;;;5066205;28;21010;-84
2022/07/18 12:40:10;;;;;;;0.50;0.50;;;29.10;42.10;;;;;;5064050;28;20489;-84
2022/07/18 12:42:39;;;;;;;1.90;0.70;;;28.90;40.20;;;;;;5063198;28;20460;-84
2022/07/18 12:45:07;;;;;;;1.77;0.40;;;29.10;39.40;;;;;;5063840;28;20479;-84
2022/07/18 12:47:35;;;;;;;0.70;0.60;;;29.10;40.50;;;;;;5064726;28;20457;-85
2022/07/18 12:50:02;;;;;;;0.60;0.60;;;29.20;39.00;;;;;;5059954;28;20449;-84
2022/07/18 12:52:30;;;;;;;0.50;0.40;;;28.90;38.00;;;;;;5056062;28;20467;-84
2022/07/18 12:54:57;;;;;;;0.50;0.50;;;29.10;39.70;;;;;;5058116;28;20472;-84
2022/07/18 12:57:24;;;;;;;0.80;0.60;;;29.00;39.20;;;;;;5065168;28;20837;-85
2022/07/18 12:59:51;;;;;;;0.90;0.60;;;29.40;42.80;;;;;;5064589;28;20456;-85